TimeEDT,TemperatureF,Dew PointF,Humidity,Sea Level PressureIn,VisibilityMPH,Wind Direction,Wind SpeedMPH,Gust SpeedMPH,PrecipitationIn,Events,Conditions,WindDirDegrees,DateUTC
12:53 AM,34.0,17.1,50,29.89,10.0,NW,11.5,-,N/A,,Clear,320,2013-04-02 04:53:00
1:53 AM,33.1,17.1,52,29.90,10.0,NW,6.9,-,N/A,,Clear,310,2013-04-02 05:53:00
3:53 AM,30.0,19.0,64,29.90,10.0,West,3.5,-,N/A,,Clear,280,2013-04-02 07:53:00
4:53 AM,28.9,19.9,69,29.90,10.0,Calm,Calm,-,N/A,,Clear,0,2013-04-02 08:53:00
5:53 AM,30.0,16.0,56,29.92,10.0,WSW,3.5,-,N/A,,Clear,250,2013-04-02 09:53:00
6:53 AM,30.0,15.1,54,29.94,10.0,SW,3.5,-,N/A,,Clear,220,2013-04-02 10:53:00
7:53 AM,32.0,14.0,48,29.96,10.0,West,10.4,17.3,N/A,,Clear,280,2013-04-02 11:53:00
8:53 AM,34.0,12.0,40,29.97,10.0,West,13.8,23.0,N/A,,Partly Cloudy,270,2013-04-02 12:53:00
9:53 AM,36.0,10.9,36,29.97,10.0,WNW,17.3,23.0,N/A,,Partly Cloudy,300,2013-04-02 13:53:00
10:53 AM,37.0,10.9,34,29.96,10.0,West,8.1,26.5,N/A,,Scattered Clouds,260,2013-04-02 14:53:00
11:53 AM,37.9,10.9,33,29.95,10.0,NNW,11.5,19.6,N/A,,Mostly Cloudy,330,2013-04-02 15:53:00
12:53 PM,39.9,9.0,28,29.94,10.0,West,19.6,26.5,N/A,,Scattered Clouds,280,2013-04-02 16:53:00
1:53 PM,39.9,7.0,26,29.93,10.0,West,16.1,29.9,N/A,,Partly Cloudy,270,2013-04-02 17:53:00
2:53 PM,42.1,7.0,24,29.91,10.0,West,20.7,28.8,N/A,,Scattered Clouds,280,2013-04-02 18:53:00
3:53 PM,39.9,5.0,23,29.91,10.0,WNW,13.8,25.3,N/A,,Scattered Clouds,290,2013-04-02 19:53:00
4:53 PM,42.1,6.1,23,29.92,10.0,WNW,15.0,26.5,N/A,,Mostly Cloudy,300,2013-04-02 20:53:00
5:53 PM,39.9,6.1,25,29.94,10.0,WNW,15.0,27.6,N/A,,Mostly Cloudy,300,2013-04-02 21:53:00
6:53 PM,39.0,6.1,26,29.96,10.0,West,10.4,25.3,N/A,,Mostly Cloudy,270,2013-04-02 22:53:00
7:53 PM,37.9,7.0,28,29.98,10.0,West,12.7,21.9,N/A,,Clear,280,2013-04-02 23:53:00
8:53 PM,37.0,8.1,30,30.01,10.0,NW,5.8,-,N/A,,Clear,310,2013-04-03 00:53:00
9:53 PM,36.0,8.1,31,30.02,10.0,Variable,4.6,-,N/A,,Clear,0,2013-04-03 01:53:00
10:53 PM,32.0,10.9,42,30.03,10.0,Variable,5.8,-,N/A,,Clear,0,2013-04-03 02:53:00
11:53 PM,34.0,8.1,34,30.04,10.0,WNW,5.8,-,N/A,,Clear,290,2013-04-03 03:53:00